sensor_id;sensor_type;location;lat;lon;timestamp;pressure;altitude;pressure_sealevel;temperature;humidity
19096;BME280;9680;52.520;13.332;2024-01-16T00:00:24;99764.91;;;0.24;75.96
19096;BME280;9680;52.520;13.332;2024-01-16T00:02:52;99763.22;;;0.21;76.70
19096;BME280;9680;52.520;13.332;2024-01-16T00:05:19;99760.66;;;0.23;77.28
19096;BME280;9680;52.520;13.332;2024-01-16T00:07:46;99768.31;;;0.26;77.90
19096;BME280;9680;52.520;13.332;2024-01-16T00:10:13;99763.16;;;0.29;78.32
19096;BME280;9680;52.520;13.332;2024-01-16T00:12:41;99775.84;;;0.38;78.57
19096;BME280;9680;52.520;13.332;2024-01-16T00:15:08;99768.13;;;0.41;78.71
19096;BME280;9680;52.520;13.332;2024-01-16T00:17:35;99767.31;;;0.41;78.79
19096;BME280;9680;52.520;13.332;2024-01-16T00:20:05;99775.00;;;0.39;79.28
19096;BME280;9680;52.520;13.332;2024-01-16T00:22:32;99767.31;;;0.39;79.18
19096;BME280;9680;52.520;13.332;2024-01-16T00:24:59;99780.13;;;0.41;79.57
19096;BME280;9680;52.520;13.332;2024-01-16T00:27:26;99778.41;;;0.38;79.78
19096;BME280;9680;52.520;13.332;2024-01-16T00:29:53;99786.94;;;0.42;80.04
19096;BME280;9680;52.520;13.332;2024-01-16T00:32:20;99781.81;;;0.42;80.25
19096;BME280;9680;52.520;13.332;2024-01-16T00:34:47;99772.47;;;0.36;80.43
19096;BME280;9680;52.520;13.332;2024-01-16T00:37:15;99781.84;;;0.39;80.74
19096;BME280;9680;52.520;13.332;2024-01-16T00:39:42;99794.78;;;0.26;80.56
19096;BME280;9680;52.520;13.332;2024-01-16T00:42:09;99803.50;;;0.08;81.13
19096;BME280;9680;52.520;13.332;2024-01-16T00:44:35;99817.19;;;0.06;81.85
19096;BME280;9680;52.520;13.332;2024-01-16T00:47:03;99816.38;;;-0.01;82.73
19096;BME280;9680;52.520;13.332;2024-01-16T00:49:31;99819.06;;;-0.12;83.66
19096;BME280;9680;52.520;13.332;2024-01-16T00:51:57;99833.66;;;-0.25;84.48
19096;BME280;9680;52.520;13.332;2024-01-16T00:54:25;99855.94;;;-0.38;85.64
19096;BME280;9680;52.520;13.332;2024-01-16T00:56:52;99848.31;;;-0.46;86.37
19096;BME280;9680;52.520;13.332;2024-01-16T00:59:21;99847.50;;;-0.52;86.84
19096;BME280;9680;52.520;13.332;2024-01-16T01:01:47;99844.13;;;-0.57;87.83
19096;BME280;9680;52.520;13.332;2024-01-16T01:04:14;99856.06;;;-0.56;88.20
19096;BME280;9680;52.520;13.332;2024-01-16T01:06:41;99861.25;;;-0.66;88.36
19096;BME280;9680;52.520;13.332;2024-01-16T01:09:08;99863.88;;;-0.81;87.98
19096;BME280;9680;52.520;13.332;2024-01-16T01:11:38;99871.63;;;-1.00;88.69
19096;BME280;9680;52.520;13.332;2024-01-16T01:14:05;99870.78;;;-1.02;89.37
19096;BME280;9680;52.520;13.332;2024-01-16T01:16:32;99871.63;;;-0.98;89.60
19096;BME280;9680;52.520;13.332;2024-01-16T01:18:59;99875.88;;;-0.93;89.18
19096;BME280;9680;52.520;13.332;2024-01-16T01:21:26;99877.59;;;-0.95;88.59
19096;BME280;9680;52.520;13.332;2024-01-16T01:23:52;99895.53;;;-1.09;88.45
19096;BME280;9680;52.520;13.332;2024-01-16T01:26:19;99881.88;;;-1.06;89.04
19096;BME280;9680;52.520;13.332;2024-01-16T01:28:47;99882.72;;;-0.99;89.05
19096;BME280;9680;52.520;13.332;2024-01-16T01:31:14;99889.53;;;-0.94;88.91
19096;BME280;9680;52.520;13.332;2024-01-16T01:33:41;99886.09;;;-0.94;88.82
19096;BME280;9680;52.520;13.332;2024-01-16T01:36:08;99893.78;;;-0.96;88.67
19096;BME280;9680;52.520;13.332;2024-01-16T01:38:35;99880.16;;;-0.96;88.79
19096;BME280;9680;52.520;13.332;2024-01-16T01:41:02;99875.00;;;-0.93;88.88
19096;BME280;9680;52.520;13.332;2024-01-16T01:43:29;99876.72;;;-0.91;88.65
19096;BME280;9680;52.520;13.332;2024-01-16T01:46:09;99890.38;;;-0.96;88.06
19096;BME280;9680;52.520;13.332;2024-01-16T01:48:37;99891.28;;;-1.07;88.14
19096;BME280;9680;52.520;13.332;2024-01-16T01:51:04;99892.97;;;-1.13;88.30
19096;BME280;9680;52.520;13.332;2024-01-16T01:53:32;99895.56;;;-1.18;88.50
19096;BME280;9680;52.520;13.332;2024-01-16T01:56:03;99898.09;;;-1.17;88.73
19096;BME280;9680;52.520;13.332;2024-01-16T01:58:31;99897.25;;;-1.14;88.47
19096;BME280;9680;52.520;13.332;2024-01-16T02:00:59;99906.63;;;-1.14;88.58
19096;BME280;9680;52.520;13.332;2024-01-16T02:03:27;99903.22;;;-1.12;88.50
19096;BME280;9680;52.520;13.332;2024-01-16T02:05:56;99910.03;;;-1.12;88.54
19096;BME280;9680;52.520;13.332;2024-01-16T02:08:23;99914.28;;;-1.08;88.62
19096;BME280;9680;52.520;13.332;2024-01-16T02:10:50;99914.28;;;-1.11;88.51
19096;BME280;9680;52.520;13.332;2024-01-16T02:13:19;99918.56;;;-1.09;88.43
19096;BME280;9680;52.520;13.332;2024-01-16T02:15:49;99929.63;;;-1.07;88.49
19096;BME280;9680;52.520;13.332;2024-01-16T02:18:19;99927.03;;;-1.05;88.50
19096;BME280;9680;52.520;13.332;2024-01-16T02:20:47;99928.75;;;-1.03;88.42
19096;BME280;9680;52.520;13.332;2024-01-16T02:23:14;99933.84;;;-1.01;88.52
19096;BME280;9680;52.520;13.332;2024-01-16T02:25:43;99937.28;;;-1.00;88.87
19096;BME280;9680;52.520;13.332;2024-01-16T02:28:11;99938.97;;;-0.98;88.90
19096;BME280;9680;52.520;13.332;2024-01-16T02:30:37;99938.94;;;-0.93;88.82
19096;BME280;9680;52.520;13.332;2024-01-16T02:33:06;99941.50;;;-0.92;88.56
19096;BME280;9680;52.520;13.332;2024-01-16T02:35:33;99948.34;;;-0.95;88.28
19096;BME280;9680;52.520;13.332;2024-01-16T02:37:59;99945.81;;;-1.05;87.96
19096;BME280;9680;52.520;13.332;2024-01-16T02:40:27;99952.66;;;-1.18;87.62
19096;BME280;9680;52.520;13.332;2024-01-16T02:42:55;99956.94;;;-1.27;87.90
19096;BME280;9680;52.520;13.332;2024-01-16T02:45:21;99958.66;;;-1.37;88.13
19096;BME280;9680;52.520;13.332;2024-01-16T02:47:48;99967.16;;;-1.46;88.22
19096;BME280;9680;52.520;13.332;2024-01-16T02:50:15;99970.59;;;-1.52;88.51
19096;BME280;9680;52.520;13.332;2024-01-16T02:52:42;99976.53;;;-1.57;88.52
19096;BME280;9680;52.520;13.332;2024-01-16T02:55:09;99983.38;;;-1.63;88.79
19096;BME280;9680;52.520;13.332;2024-01-16T02:57:36;99990.19;;;-1.63;88.80
19096;BME280;9680;52.520;13.332;2024-01-16T03:00:05;99983.38;;;-1.64;89.33
19096;BME280;9680;52.520;13.332;2024-01-16T03:02:33;99985.09;;;-1.63;89.67
19096;BME280;9680;52.520;13.332;2024-01-16T03:05:00;99987.63;;;-1.62;89.70
19096;BME280;9680;52.520;13.332;2024-01-16T03:07:29;99997.84;;;-1.60;90.24
19096;BME280;9680;52.520;13.332;2024-01-16T03:09:55;100002.97;;;-1.54;90.15
19096;BME280;9680;52.520;13.332;2024-01-16T03:12:22;99997.84;;;-1.48;90.17
19096;BME280;9680;52.520;13.332;2024-01-16T03:14:49;100001.22;;;-1.44;89.78
19096;BME280;9680;52.520;13.332;2024-01-16T03:17:17;100009.75;;;-1.40;89.80
19096;BME280;9680;52.520;13.332;2024-01-16T03:19:44;100024.22;;;-1.38;89.93
19096;BME280;9680;52.520;13.332;2024-01-16T03:22:11;100032.75;;;-1.28;90.54
19096;BME280;9680;52.520;13.332;2024-01-16T03:24:39;100025.94;;;-1.21;90.38
19096;BME280;9680;52.520;13.332;2024-01-16T03:27:06;100031.91;;;-1.16;90.30
19096;BME280;9680;52.520;13.332;2024-01-16T03:29:33;100038.72;;;-1.09;90.29
19096;BME280;9680;52.520;13.332;2024-01-16T03:32:00;100038.69;;;-1.01;90.29
19096;BME280;9680;52.520;13.332;2024-01-16T03:34:30;100042.09;;;-0.94;90.10
19096;BME280;9680;52.520;13.332;2024-01-16T03:36:56;100042.94;;;-0.89;89.69
19096;BME280;9680;52.520;13.332;2024-01-16T03:39:23;100053.19;;;-0.91;89.63
19096;BME280;9680;52.520;13.332;2024-01-16T03:41:50;100054.88;;;-0.93;89.28
19096;BME280;9680;52.520;13.332;2024-01-16T03:44:17;100061.72;;;-0.95;89.12
19096;BME280;9680;52.520;13.332;2024-01-16T03:46:44;100070.25;;;-0.96;89.40
19096;BME280;9680;52.520;13.332;2024-01-16T03:49:11;100072.78;;;-0.94;89.51
19096;BME280;9680;52.520;13.332;2024-01-16T03:51:39;100090.66;;;-0.91;89.60
19096;BME280;9680;52.520;13.332;2024-01-16T03:54:08;100102.63;;;-0.89;89.92
19096;BME280;9680;52.520;13.332;2024-01-16T03:56:34;100098.34;;;-0.86;89.82
19096;BME280;9680;52.520;13.332;2024-01-16T03:59:01;100094.91;;;-0.84;89.31
19096;BME280;9680;52.520;13.332;2024-01-16T04:01:32;100082.16;;;-0.82;89.22
19096;BME280;9680;52.520;13.332;2024-01-16T04:03:59;100078.72;;;-0.83;89.08
19096;BME280;9680;52.520;13.332;2024-01-16T04:06:26;100072.78;;;-0.83;88.72
19096;BME280;9680;52.520;13.332;2024-01-16T04:08:55;100077.91;;;-0.86;88.51
19096;BME280;9680;52.520;13.332;2024-01-16T04:11:22;100086.41;;;-0.98;88.45
19096;BME280;9680;52.520;13.332;2024-01-16T04:13:49;100089.81;;;-1.04;88.67
19096;BME280;9680;52.520;13.332;2024-01-16T04:16:16;100090.69;;;-1.04;88.83
19096;BME280;9680;52.520;13.332;2024-01-16T04:18:43;100103.47;;;-1.04;89.08
19096;BME280;9680;52.520;13.332;2024-01-16T04:21:10;100107.72;;;-1.03;89.29
19096;BME280;9680;52.520;13.332;2024-01-16T04:23:37;100107.72;;;-0.99;89.24
19096;BME280;9680;52.520;13.332;2024-01-16T04:26:05;100109.44;;;-0.97;89.32
19096;BME280;9680;52.520;13.332;2024-01-16T04:28:33;100118.81;;;-0.99;89.61
19096;BME280;9680;52.520;13.332;2024-01-16T04:31:00;100113.72;;;-0.99;89.51
19096;BME280;9680;52.520;13.332;2024-01-16T04:33:27;100111.97;;;-1.06;89.09
19096;BME280;9680;52.520;13.332;2024-01-16T04:35:54;100108.56;;;-1.11;89.24
19096;BME280;9680;52.520;13.332;2024-01-16T04:38:21;100114.53;;;-1.09;89.36
19096;BME280;9680;52.520;13.332;2024-01-16T04:40:49;100106.88;;;-1.08;89.66
19096;BME280;9680;52.520;13.332;2024-01-16T04:43:17;100111.16;;;-1.07;89.31
19096;BME280;9680;52.520;13.332;2024-01-16T04:45:43;100106.88;;;-1.11;89.15
19096;BME280;9680;52.520;13.332;2024-01-16T04:48:11;100117.97;;;-1.12;89.22
19096;BME280;9680;52.520;13.332;2024-01-16T04:50:38;100109.44;;;-1.12;89.40
19096;BME280;9680;52.520;13.332;2024-01-16T04:53:05;100113.72;;;-1.16;89.29
19096;BME280;9680;52.520;13.332;2024-01-16T04:55:32;100124.78;;;-1.20;89.56
19096;BME280;9680;52.520;13.332;2024-01-16T04:57:59;100123.06;;;-1.26;89.89
19096;BME280;9680;52.520;13.332;2024-01-16T05:00:27;100130.72;;;-1.23;90.22
19096;BME280;9680;52.520;13.332;2024-01-16T05:02:53;100123.06;;;-1.20;90.22
19096;BME280;9680;52.520;13.332;2024-01-16T05:05:20;100128.19;;;-1.23;89.98
19096;BME280;9680;52.520;13.332;2024-01-16T05:07:47;100126.50;;;-1.19;90.07
19096;BME280;9680;52.520;13.332;2024-01-16T05:10:13;100135.00;;;-1.19;90.36
19096;BME280;9680;52.520;13.332;2024-01-16T05:12:40;100127.31;;;-1.22;90.24
19096;BME280;9680;52.520;13.332;2024-01-16T05:15:08;100136.72;;;-1.25;90.04
19096;BME280;9680;52.520;13.332;2024-01-16T05:17:37;100143.53;;;-1.27;90.20
19096;BME280;9680;52.520;13.332;2024-01-16T05:20:05;100135.84;;;-1.27;90.38
19096;BME280;9680;52.520;13.332;2024-01-16T05:22:32;100139.25;;;-1.30;90.24
19096;BME280;9680;52.520;13.332;2024-01-16T05:24:59;100140.13;;;-1.29;90.58
19096;BME280;9680;52.520;13.332;2024-01-16T05:27:26;100138.41;;;-1.29;90.66
19096;BME280;9680;52.520;13.332;2024-01-16T05:29:53;100140.94;;;-1.26;90.99
19096;BME280;9680;52.520;13.332;2024-01-16T05:32:20;100146.91;;;-1.27;90.54
19096;BME280;9680;52.520;13.332;2024-01-16T05:34:48;100152.03;;;-1.32;90.60
19096;BME280;9680;52.520;13.332;2024-01-16T05:37:15;100153.72;;;-1.29;90.76
19096;BME280;9680;52.520;13.332;2024-01-16T05:39:42;100147.78;;;-1.28;90.71
19096;BME280;9680;52.520;13.332;2024-01-16T05:42:09;100152.00;;;-1.36;90.80
19096;BME280;9680;52.520;13.332;2024-01-16T05:44:36;100153.72;;;-1.38;90.65
19096;BME280;9680;52.520;13.332;2024-01-16T05:47:03;100152.00;;;-1.38;90.83
19096;BME280;9680;52.520;13.332;2024-01-16T05:49:31;100158.84;;;-1.38;90.79
19096;BME280;9680;52.520;13.332;2024-01-16T05:51:59;100162.22;;;-1.35;90.92
19096;BME280;9680;52.520;13.332;2024-01-16T05:54:26;100171.63;;;-1.35;91.27
19096;BME280;9680;52.520;13.332;2024-01-16T05:56:52;100177.59;;;-1.33;90.83
19096;BME280;9680;52.520;13.332;2024-01-16T05:59:19;100175.84;;;-1.39;90.80
19096;BME280;9680;52.520;13.332;2024-01-16T06:01:46;100183.50;;;-1.47;90.72
19096;BME280;9680;52.520;13.332;2024-01-16T06:04:13;100185.22;;;-1.49;90.84
19096;BME280;9680;52.520;13.332;2024-01-16T06:06:40;100190.28;;;-1.56;90.79
19096;BME280;9680;52.520;13.332;2024-01-16T06:09:11;100196.25;;;-1.59;90.72
19096;BME280;9680;52.520;13.332;2024-01-16T06:11:39;100185.19;;;-1.61;91.07
19096;BME280;9680;52.520;13.332;2024-01-16T06:14:07;100196.25;;;-1.59;90.97
19096;BME280;9680;52.520;13.332;2024-01-16T06:16:34;100191.13;;;-1.61;90.96
19096;BME280;9680;52.520;13.332;2024-01-16T06:19:01;100197.06;;;-1.66;90.91
19096;BME280;9680;52.520;13.332;2024-01-16T06:21:28;100190.22;;;-1.73;91.06
19096;BME280;9680;52.520;13.332;2024-01-16T06:23:57;100199.59;;;-1.72;91.55
19096;BME280;9680;52.520;13.332;2024-01-16T06:26:25;100203.88;;;-1.68;91.54
19096;BME280;9680;52.520;13.332;2024-01-16T06:28:51;100209.84;;;-1.68;91.09
19096;BME280;9680;52.520;13.332;2024-01-16T06:31:18;100215.78;;;-1.70;90.83
19096;BME280;9680;52.520;13.332;2024-01-16T06:33:45;100217.50;;;-1.71;91.16
19096;BME280;9680;52.520;13.332;2024-01-16T06:36:12;100226.00;;;-1.67;91.49
19096;BME280;9680;52.520;13.332;2024-01-16T06:38:38;100218.34;;;-1.67;91.39
19096;BME280;9680;52.520;13.332;2024-01-16T06:41:06;100224.34;;;-1.62;91.76
19096;BME280;9680;52.520;13.332;2024-01-16T06:43:34;100222.66;;;-1.58;91.77
19096;BME280;9680;52.520;13.332;2024-01-16T06:46:01;100229.50;;;-1.53;91.59
19096;BME280;9680;52.520;13.332;2024-01-16T06:48:28;100232.03;;;-1.48;91.77
19096;BME280;9680;52.520;13.332;2024-01-16T06:50:55;100239.72;;;-1.42;91.99
19096;BME280;9680;52.520;13.332;2024-01-16T06:53:22;100240.59;;;-1.37;91.96
19096;BME280;9680;52.520;13.332;2024-01-16T06:55:49;100250.88;;;-1.26;91.99
19096;BME280;9680;52.520;13.332;2024-01-16T06:58:15;100255.16;;;-1.17;92.01
19096;BME280;9680;52.520;13.332;2024-01-16T07:00:43;100254.31;;;-1.11;91.49
19096;BME280;9680;52.520;13.332;2024-01-16T07:03:11;100255.16;;;-1.12;91.55
19096;BME280;9680;52.520;13.332;2024-01-16T07:05:38;100253.47;;;-1.15;91.21
19096;BME280;9680;52.520;13.332;2024-01-16T07:08:06;100256.88;;;-1.13;91.23
19096;BME280;9680;52.520;13.332;2024-01-16T07:10:33;100260.28;;;-1.09;91.15
19096;BME280;9680;52.520;13.332;2024-01-16T07:13:01;100268.81;;;-1.07;90.80
19096;BME280;9680;52.520;13.332;2024-01-16T07:15:28;100270.50;;;-1.03;90.96
19096;BME280;9680;52.520;13.332;2024-01-16T07:17:56;100278.19;;;-0.98;91.04
19096;BME280;9680;52.520;13.332;2024-01-16T07:20:23;100278.22;;;-0.91;91.18
19096;BME280;9680;52.520;13.332;2024-01-16T07:22:49;100282.47;;;-0.88;90.71
19096;BME280;9680;52.520;13.332;2024-01-16T07:25:17;100281.63;;;-0.84;90.79
19096;BME280;9680;52.520;13.332;2024-01-16T07:27:43;100284.19;;;-0.81;90.65
19096;BME280;9680;52.520;13.332;2024-01-16T07:30:14;100291.03;;;-0.81;90.41
19096;BME280;9680;52.520;13.332;2024-01-16T07:32:40;100291.03;;;-0.77;90.35
19096;BME280;9680;52.520;13.332;2024-01-16T07:35:09;100283.34;;;-0.77;90.14
19096;BME280;9680;52.520;13.332;2024-01-16T07:37:35;100292.75;;;-0.71;90.33
19096;BME280;9680;52.520;13.332;2024-01-16T07:40:03;100289.34;;;-0.67;90.39
19096;BME280;9680;52.520;13.332;2024-01-16T07:42:31;100286.75;;;-0.71;89.73
19096;BME280;9680;52.520;13.332;2024-01-16T07:44:59;100285.06;;;-0.68;89.84
19096;BME280;9680;52.520;13.332;2024-01-16T07:47:29;100287.66;;;-0.60;89.84
19096;BME280;9680;52.520;13.332;2024-01-16T07:49:56;100291.94;;;-0.56;89.88
19096;BME280;9680;52.520;13.332;2024-01-16T07:52:24;100302.16;;;-0.50;89.64
19096;BME280;9680;52.520;13.332;2024-01-16T07:54:51;100303.88;;;-0.42;89.51
19096;BME280;9680;52.520;13.332;2024-01-16T07:57:18;100309.81;;;-0.39;89.61
19096;BME280;9680;52.520;13.332;2024-01-16T07:59:45;100310.69;;;-0.37;89.16
19096;BME280;9680;52.520;13.332;2024-01-16T08:02:11;100317.50;;;-0.37;88.99
19096;BME280;9680;52.520;13.332;2024-01-16T08:04:38;100319.22;;;-0.38;88.97
19096;BME280;9680;52.520;13.332;2024-01-16T08:07:05;100318.34;;;-0.34;89.01
19096;BME280;9680;52.520;13.332;2024-01-16T08:09:33;100324.34;;;-0.25;89.21
19096;BME280;9680;52.520;13.332;2024-01-16T08:12:00;100326.91;;;-0.16;89.11
19096;BME280;9680;52.520;13.332;2024-01-16T08:14:28;100329.47;;;-0.19;88.09
19096;BME280;9680;52.520;13.332;2024-01-16T08:16:54;100326.03;;;-0.13;88.50
19096;BME280;9680;52.520;13.332;2024-01-16T08:19:21;100330.31;;;-0.05;88.72
19096;BME280;9680;52.520;13.332;2024-01-16T08:21:48;100330.31;;;-0.02;88.14
19096;BME280;9680;52.520;13.332;2024-01-16T08:24:14;100338.00;;;0.00;88.04
19096;BME280;9680;52.520;13.332;2024-01-16T08:26:43;100337.16;;;0.01;87.83
19096;BME280;9680;52.520;13.332;2024-01-16T08:29:09;100332.00;;;0.12;87.77
19096;BME280;9680;52.520;13.332;2024-01-16T08:31:38;100326.88;;;0.20;87.57
19096;BME280;9680;52.520;13.332;2024-01-16T08:34:05;100332.81;;;0.31;87.18
19096;BME280;9680;52.520;13.332;2024-01-16T08:36:31;100326.84;;;0.31;86.61
19096;BME280;9680;52.520;13.332;2024-01-16T08:38:58;100328.53;;;0.36;86.94
19096;BME280;9680;52.520;13.332;2024-01-16T08:41:25;100328.53;;;0.44;86.84
19096;BME280;9680;52.520;13.332;2024-01-16T08:43:53;100331.09;;;0.47;86.41
19096;BME280;9680;52.520;13.332;2024-01-16T08:46:20;100341.34;;;0.42;86.04
19096;BME280;9680;52.520;13.332;2024-01-16T08:48:48;100328.53;;;0.39;86.26
19096;BME280;9680;52.520;13.332;2024-01-16T08:51:15;100336.19;;;0.52;86.51
19096;BME280;9680;52.520;13.332;2024-01-16T08:53:42;100339.59;;;0.57;86.34
19096;BME280;9680;52.520;13.332;2024-01-16T08:56:09;100338.69;;;0.64;85.92
19096;BME280;9680;52.520;13.332;2024-01-16T08:58:37;100333.59;;;0.70;85.71
19096;BME280;9680;52.520;13.332;2024-01-16T09:01:07;100331.88;;;0.69;85.32
19096;BME280;9680;52.520;13.332;2024-01-16T09:03:33;100331.84;;;0.71;85.40
19096;BME280;9680;52.520;13.332;2024-01-16T09:06:01;100333.56;;;0.69;85.02
19096;BME280;9680;52.520;13.332;2024-01-16T09:08:29;100346.41;;;0.63;84.66
19096;BME280;9680;52.520;13.332;2024-01-16T09:10:56;100337.84;;;0.62;85.10
19096;BME280;9680;52.520;13.332;2024-01-16T09:13:23;100348.13;;;0.64;85.16
19096;BME280;9680;52.520;13.332;2024-01-16T09:15:50;100351.53;;;0.58;85.10
19096;BME280;9680;52.520;13.332;2024-01-16T09:18:18;100355.81;;;0.64;85.53
19096;BME280;9680;52.520;13.332;2024-01-16T09:20:45;100357.50;;;0.71;85.72
19096;BME280;9680;52.520;13.332;2024-01-16T09:23:12;100357.47;;;0.82;85.85
19096;BME280;9680;52.520;13.332;2024-01-16T09:25:39;100360.03;;;0.82;85.49
19096;BME280;9680;52.520;13.332;2024-01-16T09:28:06;100356.59;;;0.84;85.60
19096;BME280;9680;52.520;13.332;2024-01-16T09:30:33;100360.81;;;0.95;85.69
19096;BME280;9680;52.520;13.332;2024-01-16T09:33:00;100356.50;;;1.05;85.45
19096;BME280;9680;52.520;13.332;2024-01-16T09:35:30;100365.88;;;1.12;85.34
19096;BME280;9680;52.520;13.332;2024-01-16T09:37:56;100361.56;;;1.17;85.04
19096;BME280;9680;52.520;13.332;2024-01-16T09:40:24;100360.75;;;1.13;84.71
19096;BME280;9680;52.520;13.332;2024-01-16T09:42:52;100359.91;;;1.10;84.78
19096;BME280;9680;52.520;13.332;2024-01-16T09:45:51;100357.34;;;1.10;84.80
19096;BME280;9680;52.520;13.332;2024-01-16T09:48:18;100353.84;;;1.20;85.09
19096;BME280;9680;52.520;13.332;2024-01-16T09:50:46;100356.34;;;1.37;84.92
19096;BME280;9680;52.520;13.332;2024-01-16T09:53:13;100360.50;;;1.54;84.41
19096;BME280;9680;52.520;13.332;2024-01-16T09:55:40;100355.28;;;1.69;84.49
19096;BME280;9680;52.520;13.332;2024-01-16T09:58:09;100355.13;;;1.88;84.00
19096;BME280;9680;52.520;13.332;2024-01-16T10:00:42;100353.34;;;1.95;83.60
19096;BME280;9680;52.520;13.332;2024-01-16T10:03:11;100360.09;;;2.08;83.31
19096;BME280;9680;52.520;13.332;2024-01-16T10:05:39;100354.09;;;2.08;82.38
19096;BME280;9680;52.520;13.332;2024-01-16T10:08:08;100352.34;;;2.13;82.52
19096;BME280;9680;52.520;13.332;2024-01-16T10:10:35;100360.00;;;2.16;82.39
19096;BME280;9680;52.520;13.332;2024-01-16T10:13:03;100360.00;;;2.17;82.39
19096;BME280;9680;52.520;13.332;2024-01-16T10:15:31;100365.91;;;2.29;82.33
19096;BME280;9680;52.520;13.332;2024-01-16T10:17:58;100366.00;;;2.20;81.11
19096;BME280;9680;52.520;13.332;2024-01-16T10:20:35;100360.13;;;2.03;80.82
19096;BME280;9680;52.520;13.332;2024-01-16T10:23:04;100362.66;;;2.08;81.42
19096;BME280;9680;52.520;13.332;2024-01-16T10:25:32;100359.22;;;2.11;80.61
19096;BME280;9680;52.520;13.332;2024-01-16T10:28:06;100360.09;;;2.07;80.39
19096;BME280;9680;52.520;13.332;2024-01-16T10:30:36;100359.28;;;2.03;80.81
19096;BME280;9680;52.520;13.332;2024-01-16T10:33:12;100357.44;;;2.17;81.50
19096;BME280;9680;52.520;13.332;2024-01-16T10:35:40;100353.88;;;2.31;81.53
19096;BME280;9680;52.520;13.332;2024-01-16T10:38:07;100366.75;;;2.32;80.20
19096;BME280;9680;52.520;13.332;2024-01-16T10:40:35;100366.78;;;2.26;79.70
19096;BME280;9680;52.520;13.332;2024-01-16T10:43:03;100373.59;;;2.30;80.64
19096;BME280;9680;52.520;13.332;2024-01-16T10:45:31;100370.03;;;2.45;80.62
19096;BME280;9680;52.520;13.332;2024-01-16T10:48:02;100368.19;;;2.57;80.49
19096;BME280;9680;52.520;13.332;2024-01-16T10:50:29;100370.69;;;2.65;80.39
19096;BME280;9680;52.520;13.332;2024-01-16T10:52:59;100368.94;;;2.67;79.63
19096;BME280;9680;52.520;13.332;2024-01-16T10:55:28;100370.75;;;2.58;79.03
19096;BME280;9680;52.520;13.332;2024-01-16T10:57:57;100368.25;;;2.52;78.53
19096;BME280;9680;52.520;13.332;2024-01-16T11:00:27;100373.53;;;2.38;79.11
19096;BME280;9680;52.520;13.332;2024-01-16T11:02:59;100364.16;;;2.31;79.21
19096;BME280;9680;52.520;13.332;2024-01-16T11:05:35;100363.38;;;2.26;79.50
19096;BME280;9680;52.520;13.332;2024-01-16T11:08:04;100361.69;;;2.20;79.56
19096;BME280;9680;52.520;13.332;2024-01-16T11:10:31;100356.56;;;2.17;79.53
19096;BME280;9680;52.520;13.332;2024-01-16T11:13:04;100353.16;;;2.18;79.51
19096;BME280;9680;52.520;13.332;2024-01-16T11:15:32;100351.50;;;2.11;78.78
19096;BME280;9680;52.520;13.332;2024-01-16T11:17:59;100354.19;;;1.98;79.07
19096;BME280;9680;52.520;13.332;2024-01-16T11:20:26;100355.06;;;1.94;78.98
19096;BME280;9680;52.520;13.332;2024-01-16T11:22:55;100349.88;;;2.00;79.91
19096;BME280;9680;52.520;13.332;2024-01-16T11:25:31;100348.19;;;1.98;79.37
19096;BME280;9680;52.520;13.332;2024-01-16T11:28:08;100345.66;;;1.92;79.37
19096;BME280;9680;52.520;13.332;2024-01-16T11:30:54;100349.94;;;1.94;79.93
19096;BME280;9680;52.520;13.332;2024-01-16T11:34:24;100347.28;;;2.05;80.03
19096;BME280;9680;52.520;13.332;2024-01-16T11:37:11;100340.50;;;1.95;79.70
19096;BME280;9680;52.520;13.332;2024-01-16T11:43:39;100341.38;;;1.92;79.66
19096;BME280;9680;52.520;13.332;2024-01-16T11:49:26;100355.19;;;1.80;80.64
19096;BME280;9680;52.520;13.332;2024-01-16T11:51:53;100344.06;;;1.80;80.56
19096;BME280;9680;52.520;13.332;2024-01-16T11:54:19;100351.75;;;1.81;80.76
19096;BME280;9680;52.520;13.332;2024-01-16T11:57:12;100339.75;;;1.83;80.78
19096;BME280;9680;52.520;13.332;2024-01-16T11:59:58;100343.16;;;1.85;81.16
19096;BME280;9680;52.520;13.332;2024-01-16T12:02:31;100342.25;;;1.89;80.94
19096;BME280;9680;52.520;13.332;2024-01-16T12:05:00;100339.63;;;1.99;81.34
19096;BME280;9680;52.520;13.332;2024-01-16T12:07:42;100332.63;;;2.13;81.30
19096;BME280;9680;52.520;13.332;2024-01-16T12:10:12;100328.25;;;2.25;81.02
19096;BME280;9680;52.520;13.332;2024-01-16T12:12:39;100322.19;;;2.27;80.69
19096;BME280;9680;52.520;13.332;2024-01-16T12:15:13;100328.28;;;2.20;80.62
19096;BME280;9680;52.520;13.332;2024-01-16T12:17:52;100320.56;;;2.22;80.81
19096;BME280;9680;52.520;13.332;2024-01-16T12:20:20;100318.03;;;2.18;80.29
19096;BME280;9680;52.520;13.332;2024-01-16T12:22:53;100308.63;;;2.17;80.62
19096;BME280;9680;52.520;13.332;2024-01-16T12:25:20;100303.50;;;2.13;80.33
19096;BME280;9680;52.520;13.332;2024-01-16T12:27:54;100305.28;;;2.09;80.73
19096;BME280;9680;52.520;13.332;2024-01-16T12:30:23;100306.22;;;1.99;80.70
19096;BME280;9680;52.520;13.332;2024-01-16T12:32:50;100293.38;;;1.97;80.93
19096;BME280;9680;52.520;13.332;2024-01-16T12:35:21;100294.22;;;1.99;80.99
19096;BME280;9680;52.520;13.332;2024-01-16T12:37:58;100292.53;;;1.95;81.01
19096;BME280;9680;52.520;13.332;2024-01-16T12:40:25;100295.06;;;2.03;81.24
19096;BME280;9680;52.520;13.332;2024-01-16T12:42:53;100291.50;;;2.16;81.46
19096;BME280;9680;52.520;13.332;2024-01-16T12:45:22;100287.94;;;2.25;81.10
19096;BME280;9680;52.520;13.332;2024-01-16T12:47:50;100294.75;;;2.32;80.34
19096;BME280;9680;52.520;13.332;2024-01-16T12:50:21;100288.63;;;2.41;80.52
19096;BME280;9680;52.520;13.332;2024-01-16T12:53:03;100292.91;;;2.42;80.14
19096;BME280;9680;52.520;13.332;2024-01-16T12:55:32;100292.16;;;2.36;80.15
19096;BME280;9680;52.520;13.332;2024-01-16T12:58:15;100293.78;;;2.41;80.53
19096;BME280;9680;52.520;13.332;2024-01-16T13:00:47;100292.94;;;2.41;80.23
19096;BME280;9680;52.520;13.332;2024-01-16T13:03:40;100291.13;;;2.49;80.47
19096;BME280;9680;52.520;13.332;2024-01-16T13:06:17;100297.06;;;2.53;79.98
19096;BME280;9680;52.520;13.332;2024-01-16T13:09:03;100292.88;;;2.45;79.73
19096;BME280;9680;52.520;13.332;2024-01-16T13:12:38;100282.75;;;2.31;80.37